sensor_id;sensor_type;location;lat;lon;timestamp;P1;durP1;ratioP1;P2;durP2;ratioP2
7729;SDS011;3908;52.310;7.230;2023-01-10T00:00:49;8.07;;;4.23;;
7729;SDS011;3908;52.310;7.230;2023-01-10T00:03:36;9.37;;;3.90;;
7729;SDS011;3908;52.310;7.230;2023-01-10T00:06:25;12.87;;;3.97;;
7729;SDS011;3908;52.310;7.230;2023-01-10T00:09:12;8.77;;;4.57;;
7729;SDS011;3908;52.310;7.230;2023-01-10T00:11:59;12.83;;;4.80;;
7729;SDS011;3908;52.310;7.230;2023-01-10T00:15:04;13.33;;;4.77;;
7729;SDS011;3908;52.310;7.230;2023-01-10T00:17:51;13.60;;;4.87;;
7729;SDS011;3908;52.310;7.230;2023-01-10T00:20:38;12.90;;;4.83;;
7729;SDS011;3908;52.310;7.230;2023-01-10T00:23:27;17.00;;;6.83;;
7729;SDS011;3908;52.310;7.230;2023-01-10T00:26:14;13.27;;;7.97;;
7729;SDS011;3908;52.310;7.230;2023-01-10T00:29:00;16.63;;;5.80;;
7729;SDS011;3908;52.310;7.230;2023-01-10T00:31:47;12.90;;;5.43;;
7729;SDS011;3908;52.310;7.230;2023-01-10T00:34:35;12.40;;;5.83;;
7729;SDS011;3908;52.310;7.230;2023-01-10T00:37:21;15.07;;;7.33;;
7729;SDS011;3908;52.310;7.230;2023-01-10T00:40:10;18.47;;;6.97;;
7729;SDS011;3908;52.310;7.230;2023-01-10T00:42:58;12.57;;;7.20;;
7729;SDS011;3908;52.310;7.230;2023-01-10T00:46:03;14.10;;;7.50;;
7729;SDS011;3908;52.310;7.230;2023-01-10T00:48:50;22.93;;;7.23;;
7729;SDS011;3908;52.310;7.230;2023-01-10T00:51:39;16.63;;;6.07;;
7729;SDS011;3908;52.310;7.230;2023-01-10T00:54:26;11.23;;;5.03;;
7729;SDS011;3908;52.310;7.230;2023-01-10T00:57:15;14.87;;;6.00;;
7729;SDS011;3908;52.310;7.230;2023-01-10T01:00:02;11.67;;;4.27;;
7729;SDS011;3908;52.310;7.230;2023-01-10T01:02:52;16.37;;;4.33;;
7729;SDS011;3908;52.310;7.230;2023-01-10T01:05:39;21.60;;;7.37;;
7729;SDS011;3908;52.310;7.230;2023-01-10T01:08:26;12.90;;;6.40;;
7729;SDS011;3908;52.310;7.230;2023-01-10T01:11:13;27.50;;;11.80;;
7729;SDS011;3908;52.310;7.230;2023-01-10T01:14:02;25.33;;;13.20;;
7729;SDS011;3908;52.310;7.230;2023-01-10T01:16:49;16.63;;;8.20;;
7729;SDS011;3908;52.310;7.230;2023-01-10T01:19:36;23.13;;;7.47;;
7729;SDS011;3908;52.310;7.230;2023-01-10T01:22:23;22.87;;;8.87;;
7729;SDS011;3908;52.310;7.230;2023-01-10T01:25:10;13.67;;;5.87;;
7729;SDS011;3908;52.310;7.230;2023-01-10T01:27:57;19.47;;;7.20;;
7729;SDS011;3908;52.310;7.230;2023-01-10T01:30:45;12.07;;;7.80;;
7729;SDS011;3908;52.310;7.230;2023-01-10T01:33:32;17.70;;;9.47;;
7729;SDS011;3908;52.310;7.230;2023-01-10T01:36:19;21.90;;;8.27;;
7729;SDS011;3908;52.310;7.230;2023-01-10T01:39:06;26.20;;;6.77;;
7729;SDS011;3908;52.310;7.230;2023-01-10T01:41:53;18.80;;;5.37;;
7729;SDS011;3908;52.310;7.230;2023-01-10T01:44:43;19.77;;;7.10;;
7729;SDS011;3908;52.310;7.230;2023-01-10T01:47:33;17.00;;;5.23;;
7729;SDS011;3908;52.310;7.230;2023-01-10T01:50:24;14.90;;;6.30;;
7729;SDS011;3908;52.310;7.230;2023-01-10T01:53:17;20.60;;;5.63;;
7729;SDS011;3908;52.310;7.230;2023-01-10T01:56:09;13.80;;;3.93;;
7729;SDS011;3908;52.310;7.230;2023-01-10T01:59:00;19.27;;;7.77;;
7729;SDS011;3908;52.310;7.230;2023-01-10T02:01:51;14.43;;;4.20;;
7729;SDS011;3908;52.310;7.230;2023-01-10T02:04:45;11.43;;;3.17;;
7729;SDS011;3908;52.310;7.230;2023-01-10T02:07:37;13.67;;;4.13;;
7729;SDS011;3908;52.310;7.230;2023-01-10T02:10:30;18.27;;;3.93;;
7729;SDS011;3908;52.310;7.230;2023-01-10T02:13:23;12.93;;;3.57;;
7729;SDS011;3908;52.310;7.230;2023-01-10T02:16:11;15.37;;;3.63;;
7729;SDS011;3908;52.310;7.230;2023-01-10T02:18:59;13.77;;;3.93;;
7729;SDS011;3908;52.310;7.230;2023-01-10T02:21:54;13.37;;;3.30;;
7729;SDS011;3908;52.310;7.230;2023-01-10T02:32:17;9.53;;;3.47;;
7729;SDS011;3908;52.310;7.230;2023-01-10T02:35:14;13.17;;;3.43;;
7729;SDS011;3908;52.310;7.230;2023-01-10T02:38:16;14.20;;;3.77;;
7729;SDS011;3908;52.310;7.230;2023-01-10T02:41:15;11.93;;;3.77;;
7729;SDS011;3908;52.310;7.230;2023-01-10T02:44:13;15.40;;;3.93;;
7729;SDS011;3908;52.310;7.230;2023-01-10T02:47:06;17.03;;;3.87;;
7729;SDS011;3908;52.310;7.230;2023-01-10T02:49:54;18.83;;;4.73;;
7729;SDS011;3908;52.310;7.230;2023-01-10T02:52:41;11.03;;;3.80;;
7729;SDS011;3908;52.310;7.230;2023-01-10T02:55:32;17.40;;;4.30;;
7729;SDS011;3908;52.310;7.230;2023-01-10T02:58:32;9.50;;;3.70;;
7729;SDS011;3908;52.310;7.230;2023-01-10T03:01:30;14.53;;;3.70;;
7729;SDS011;3908;52.310;7.230;2023-01-10T03:04:24;14.20;;;3.80;;
7729;SDS011;3908;52.310;7.230;2023-01-10T03:07:22;7.50;;;3.10;;
7729;SDS011;3908;52.310;7.230;2023-01-10T03:10:14;14.93;;;4.80;;
7729;SDS011;3908;52.310;7.230;2023-01-10T03:13:05;16.03;;;3.60;;
7729;SDS011;3908;52.310;7.230;2023-01-10T03:15:57;12.63;;;3.97;;
7729;SDS011;3908;52.310;7.230;2023-01-10T03:18:48;11.87;;;3.43;;
7729;SDS011;3908;52.310;7.230;2023-01-10T03:21:38;14.97;;;4.03;;
7729;SDS011;3908;52.310;7.230;2023-01-10T03:24:29;6.87;;;3.50;;
7729;SDS011;3908;52.310;7.230;2023-01-10T03:27:21;16.83;;;3.93;;
7729;SDS011;3908;52.310;7.230;2023-01-10T03:30:16;11.50;;;4.50;;
7729;SDS011;3908;52.310;7.230;2023-01-10T03:33:10;18.20;;;4.00;;
7729;SDS011;3908;52.310;7.230;2023-01-10T03:36:03;16.60;;;4.10;;
7729;SDS011;3908;52.310;7.230;2023-01-10T03:39:02;14.30;;;3.50;;
7729;SDS011;3908;52.310;7.230;2023-01-10T03:42:06;12.97;;;3.73;;
7729;SDS011;3908;52.310;7.230;2023-01-10T03:44:57;14.47;;;3.77;;
7729;SDS011;3908;52.310;7.230;2023-01-10T03:47:49;17.37;;;4.20;;
7729;SDS011;3908;52.310;7.230;2023-01-10T03:50:39;10.93;;;3.77;;
7729;SDS011;3908;52.310;7.230;2023-01-10T03:53:29;17.70;;;3.53;;
7729;SDS011;3908;52.310;7.230;2023-01-10T03:56:17;15.27;;;4.37;;
7729;SDS011;3908;52.310;7.230;2023-01-10T03:59:05;11.20;;;3.93;;
7729;SDS011;3908;52.310;7.230;2023-01-10T04:01:53;14.27;;;4.10;;
7729;SDS011;3908;52.310;7.230;2023-01-10T04:04:40;16.63;;;4.03;;
7729;SDS011;3908;52.310;7.230;2023-01-10T04:07:27;16.43;;;3.87;;
7729;SDS011;3908;52.310;7.230;2023-01-10T04:10:14;11.03;;;3.67;;
7729;SDS011;3908;52.310;7.230;2023-01-10T04:13:02;12.13;;;3.00;;
7729;SDS011;3908;52.310;7.230;2023-01-10T04:15:51;9.67;;;3.03;;
7729;SDS011;3908;52.310;7.230;2023-01-10T04:18:38;11.80;;;3.50;;
7729;SDS011;3908;52.310;7.230;2023-01-10T04:21:25;8.17;;;3.33;;
7729;SDS011;3908;52.310;7.230;2023-01-10T04:24:12;17.30;;;2.90;;
7729;SDS011;3908;52.310;7.230;2023-01-10T04:26:59;13.27;;;3.33;;
7729;SDS011;3908;52.310;7.230;2023-01-10T04:29:46;9.83;;;3.50;;
7729;SDS011;3908;52.310;7.230;2023-01-10T04:32:35;16.00;;;4.33;;
7729;SDS011;3908;52.310;7.230;2023-01-10T04:35:22;15.03;;;3.50;;
7729;SDS011;3908;52.310;7.230;2023-01-10T04:38:09;14.30;;;3.40;;
7729;SDS011;3908;52.310;7.230;2023-01-10T04:40:56;11.63;;;3.10;;
7729;SDS011;3908;52.310;7.230;2023-01-10T04:43:42;10.00;;;3.40;;
7729;SDS011;3908;52.310;7.230;2023-01-10T04:46:30;14.83;;;3.83;;
7729;SDS011;3908;52.310;7.230;2023-01-10T04:49:18;19.80;;;3.83;;
7729;SDS011;3908;52.310;7.230;2023-01-10T04:52:05;10.53;;;3.27;;
7729;SDS011;3908;52.310;7.230;2023-01-10T04:54:52;14.57;;;3.30;;
7729;SDS011;3908;52.310;7.230;2023-01-10T04:57:39;14.13;;;3.60;;
7729;SDS011;3908;52.310;7.230;2023-01-10T05:00:26;16.47;;;3.80;;
7729;SDS011;3908;52.310;7.230;2023-01-10T05:03:13;12.17;;;3.53;;
7729;SDS011;3908;52.310;7.230;2023-01-10T05:06:06;6.33;;;2.60;;
7729;SDS011;3908;52.310;7.230;2023-01-10T05:08:53;16.00;;;3.40;;
7729;SDS011;3908;52.310;7.230;2023-01-10T05:11:40;16.63;;;3.40;;
7729;SDS011;3908;52.310;7.230;2023-01-10T05:14:27;9.33;;;3.27;;
7729;SDS011;3908;52.310;7.230;2023-01-10T05:17:13;11.43;;;3.07;;
7729;SDS011;3908;52.310;7.230;2023-01-10T05:20:00;16.67;;;3.50;;
7729;SDS011;3908;52.310;7.230;2023-01-10T05:22:49;14.77;;;3.00;;
7729;SDS011;3908;52.310;7.230;2023-01-10T05:25:36;13.03;;;3.67;;
7729;SDS011;3908;52.310;7.230;2023-01-10T05:28:23;18.30;;;3.17;;
7729;SDS011;3908;52.310;7.230;2023-01-10T05:31:11;15.33;;;3.47;;
7729;SDS011;3908;52.310;7.230;2023-01-10T05:34:00;14.70;;;3.37;;
7729;SDS011;3908;52.310;7.230;2023-01-10T05:36:47;12.93;;;3.43;;
7729;SDS011;3908;52.310;7.230;2023-01-10T05:39:35;10.33;;;3.20;;
7729;SDS011;3908;52.310;7.230;2023-01-10T05:42:24;11.47;;;3.97;;
7729;SDS011;3908;52.310;7.230;2023-01-10T05:45:11;10.90;;;3.70;;
7729;SDS011;3908;52.310;7.230;2023-01-10T05:47:58;16.10;;;4.47;;
7729;SDS011;3908;52.310;7.230;2023-01-10T05:50:45;12.83;;;3.63;;
7729;SDS011;3908;52.310;7.230;2023-01-10T05:53:32;17.03;;;5.17;;
7729;SDS011;3908;52.310;7.230;2023-01-10T05:56:20;12.47;;;3.87;;
7729;SDS011;3908;52.310;7.230;2023-01-10T05:59:07;13.17;;;4.33;;
7729;SDS011;3908;52.310;7.230;2023-01-10T06:01:54;14.03;;;4.23;;
7729;SDS011;3908;52.310;7.230;2023-01-10T06:04:41;12.53;;;4.20;;
7729;SDS011;3908;52.310;7.230;2023-01-10T06:07:28;14.47;;;4.17;;
7729;SDS011;3908;52.310;7.230;2023-01-10T06:10:16;17.30;;;4.97;;
7729;SDS011;3908;52.310;7.230;2023-01-10T06:13:05;19.30;;;4.30;;
7729;SDS011;3908;52.310;7.230;2023-01-10T06:15:54;15.57;;;5.27;;
7729;SDS011;3908;52.310;7.230;2023-01-10T06:18:41;16.70;;;5.23;;
7729;SDS011;3908;52.310;7.230;2023-01-10T06:21:28;21.30;;;5.90;;
7729;SDS011;3908;52.310;7.230;2023-01-10T06:24:15;12.23;;;5.47;;
7729;SDS011;3908;52.310;7.230;2023-01-10T06:27:02;16.53;;;5.60;;
7729;SDS011;3908;52.310;7.230;2023-01-10T06:32:18;14.10;;;6.17;;
7729;SDS011;3908;52.310;7.230;2023-01-10T06:35:05;22.17;;;6.70;;
7729;SDS011;3908;52.310;7.230;2023-01-10T06:37:52;19.77;;;6.67;;
7729;SDS011;3908;52.310;7.230;2023-01-10T06:40:39;20.67;;;6.60;;
7729;SDS011;3908;52.310;7.230;2023-01-10T06:43:26;25.67;;;7.80;;
7729;SDS011;3908;52.310;7.230;2023-01-10T06:46:14;20.93;;;7.03;;
7729;SDS011;3908;52.310;7.230;2023-01-10T06:49:05;12.70;;;6.17;;
7729;SDS011;3908;52.310;7.230;2023-01-10T06:51:53;18.40;;;7.00;;
7729;SDS011;3908;52.310;7.230;2023-01-10T06:54:39;14.67;;;7.47;;
7729;SDS011;3908;52.310;7.230;2023-01-10T06:57:26;20.57;;;8.13;;
7729;SDS011;3908;52.310;7.230;2023-01-10T07:00:14;21.17;;;7.63;;
7729;SDS011;3908;52.310;7.230;2023-01-10T07:03:01;21.63;;;7.50;;
7729;SDS011;3908;52.310;7.230;2023-01-10T07:05:50;14.07;;;6.30;;
7729;SDS011;3908;52.310;7.230;2023-01-10T07:08:37;22.80;;;7.17;;
7729;SDS011;3908;52.310;7.230;2023-01-10T07:11:25;25.13;;;7.03;;
7729;SDS011;3908;52.310;7.230;2023-01-10T07:14:12;16.03;;;6.63;;
7729;SDS011;3908;52.310;7.230;2023-01-10T07:16:58;17.27;;;7.10;;
7729;SDS011;3908;52.310;7.230;2023-01-10T07:19:46;18.07;;;7.20;;
7729;SDS011;3908;52.310;7.230;2023-01-10T07:22:34;24.37;;;7.80;;
7729;SDS011;3908;52.310;7.230;2023-01-10T07:25:21;18.30;;;7.00;;
7729;SDS011;3908;52.310;7.230;2023-01-10T07:28:08;23.77;;;6.80;;
7729;SDS011;3908;52.310;7.230;2023-01-10T07:30:57;22.50;;;7.20;;
7729;SDS011;3908;52.310;7.230;2023-01-10T07:33:44;26.23;;;7.13;;
7729;SDS011;3908;52.310;7.230;2023-01-10T07:36:31;15.03;;;5.43;;
7729;SDS011;3908;52.310;7.230;2023-01-10T07:39:21;20.43;;;6.30;;
7729;SDS011;3908;52.310;7.230;2023-01-10T07:42:08;16.50;;;6.07;;
7729;SDS011;3908;52.310;7.230;2023-01-10T07:44:56;23.07;;;6.73;;
7729;SDS011;3908;52.310;7.230;2023-01-10T07:47:42;19.50;;;6.57;;
7729;SDS011;3908;52.310;7.230;2023-01-10T07:50:30;18.87;;;6.70;;
7729;SDS011;3908;52.310;7.230;2023-01-10T07:53:19;28.00;;;7.20;;
7729;SDS011;3908;52.310;7.230;2023-01-10T07:56:07;14.07;;;6.23;;
7729;SDS011;3908;52.310;7.230;2023-01-10T07:58:54;23.00;;;5.97;;
7729;SDS011;3908;52.310;7.230;2023-01-10T08:01:41;16.30;;;6.20;;
7729;SDS011;3908;52.310;7.230;2023-01-10T08:04:28;17.10;;;6.30;;
7729;SDS011;3908;52.310;7.230;2023-01-10T08:07:15;17.33;;;6.03;;
7729;SDS011;3908;52.310;7.230;2023-01-10T08:10:03;24.13;;;5.50;;
7729;SDS011;3908;52.310;7.230;2023-01-10T08:12:52;24.80;;;6.03;;
7729;SDS011;3908;52.310;7.230;2023-01-10T08:15:39;28.07;;;6.50;;
7729;SDS011;3908;52.310;7.230;2023-01-10T08:18:26;24.57;;;5.97;;
7729;SDS011;3908;52.310;7.230;2023-01-10T08:21:13;20.13;;;6.00;;
7729;SDS011;3908;52.310;7.230;2023-01-10T08:24:00;18.03;;;5.70;;
7729;SDS011;3908;52.310;7.230;2023-01-10T08:26:47;12.03;;;4.87;;
7729;SDS011;3908;52.310;7.230;2023-01-10T08:29:35;16.27;;;5.10;;
7729;SDS011;3908;52.310;7.230;2023-01-10T08:32:22;21.27;;;6.10;;
7729;SDS011;3908;52.310;7.230;2023-01-10T08:35:09;28.27;;;5.80;;
7729;SDS011;3908;52.310;7.230;2023-01-10T08:37:57;20.10;;;5.50;;
7729;SDS011;3908;52.310;7.230;2023-01-10T08:40:44;22.67;;;6.10;;
7729;SDS011;3908;52.310;7.230;2023-01-10T08:43:31;18.37;;;5.20;;
7729;SDS011;3908;52.310;7.230;2023-01-10T08:46:19;22.73;;;5.27;;
7729;SDS011;3908;52.310;7.230;2023-01-10T08:49:06;18.27;;;4.97;;
7729;SDS011;3908;52.310;7.230;2023-01-10T08:51:53;17.97;;;5.53;;
7729;SDS011;3908;52.310;7.230;2023-01-10T08:54:40;15.90;;;5.53;;
7729;SDS011;3908;52.310;7.230;2023-01-10T08:57:27;16.43;;;5.57;;
7729;SDS011;3908;52.310;7.230;2023-01-10T09:00:14;23.23;;;5.30;;
7729;SDS011;3908;52.310;7.230;2023-01-10T09:03:05;22.93;;;5.23;;
7729;SDS011;3908;52.310;7.230;2023-01-10T09:05:53;20.03;;;5.40;;
7729;SDS011;3908;52.310;7.230;2023-01-10T09:08:39;21.37;;;6.37;;
7729;SDS011;3908;52.310;7.230;2023-01-10T09:11:26;20.90;;;5.03;;
7729;SDS011;3908;52.310;7.230;2023-01-10T09:14:13;30.60;;;6.40;;
7729;SDS011;3908;52.310;7.230;2023-01-10T09:17:00;19.63;;;5.37;;
7729;SDS011;3908;52.310;7.230;2023-01-10T09:19:49;22.87;;;4.97;;
7729;SDS011;3908;52.310;7.230;2023-01-10T09:22:36;24.50;;;5.90;;
7729;SDS011;3908;52.310;7.230;2023-01-10T09:25:24;25.57;;;4.73;;
7729;SDS011;3908;52.310;7.230;2023-01-10T09:28:11;17.80;;;5.40;;
7729;SDS011;3908;52.310;7.230;2023-01-10T09:30:58;24.07;;;5.33;;
7729;SDS011;3908;52.310;7.230;2023-01-10T09:33:48;28.20;;;5.53;;
7729;SDS011;3908;52.310;7.230;2023-01-10T09:36:36;18.17;;;4.63;;
7729;SDS011;3908;52.310;7.230;2023-01-10T09:39:23;25.73;;;5.50;;
7729;SDS011;3908;52.310;7.230;2023-01-10T09:42:15;19.90;;;4.20;;
7729;SDS011;3908;52.310;7.230;2023-01-10T09:45:14;17.33;;;4.40;;
7729;SDS011;3908;52.310;7.230;2023-01-10T09:48:07;17.23;;;4.63;;
7729;SDS011;3908;52.310;7.230;2023-01-10T09:51:09;24.27;;;5.43;;
7729;SDS011;3908;52.310;7.230;2023-01-10T09:54:12;18.10;;;4.90;;
7729;SDS011;3908;52.310;7.230;2023-01-10T09:57:02;19.13;;;4.87;;
7729;SDS011;3908;52.310;7.230;2023-01-10T09:59:50;18.63;;;4.30;;
7729;SDS011;3908;52.310;7.230;2023-01-10T10:02:39;28.97;;;4.87;;
7729;SDS011;3908;52.310;7.230;2023-01-10T10:05:29;22.47;;;4.30;;
7729;SDS011;3908;52.310;7.230;2023-01-10T10:08:17;18.23;;;4.77;;
7729;SDS011;3908;52.310;7.230;2023-01-10T10:11:15;20.83;;;5.20;;
7729;SDS011;3908;52.310;7.230;2023-01-10T10:14:20;14.97;;;4.90;;
7729;SDS011;3908;52.310;7.230;2023-01-10T10:17:22;17.63;;;4.80;;
7729;SDS011;3908;52.310;7.230;2023-01-10T10:20:23;28.23;;;5.07;;
7729;SDS011;3908;52.310;7.230;2023-01-10T10:23:25;19.23;;;4.70;;
7729;SDS011;3908;52.310;7.230;2023-01-10T10:26:23;22.97;;;4.80;;
7729;SDS011;3908;52.310;7.230;2023-01-10T10:29:22;21.33;;;4.50;;
7729;SDS011;3908;52.310;7.230;2023-01-10T10:36:02;25.97;;;5.10;;
7729;SDS011;3908;52.310;7.230;2023-01-10T10:38:55;17.37;;;4.00;;
7729;SDS011;3908;52.310;7.230;2023-01-10T10:41:47;18.03;;;4.00;;
7729;SDS011;3908;52.310;7.230;2023-01-10T10:44:38;15.80;;;3.87;;
7729;SDS011;3908;52.310;7.230;2023-01-10T10:47:30;21.07;;;5.53;;
7729;SDS011;3908;52.310;7.230;2023-01-10T10:50:21;18.40;;;4.03;;
7729;SDS011;3908;52.310;7.230;2023-01-10T10:53:14;12.83;;;4.40;;
7729;SDS011;3908;52.310;7.230;2023-01-10T10:56:04;23.10;;;4.90;;
7729;SDS011;3908;52.310;7.230;2023-01-10T10:58:58;19.77;;;4.73;;
7729;SDS011;3908;52.310;7.230;2023-01-10T11:01:46;27.17;;;5.47;;
7729;SDS011;3908;52.310;7.230;2023-01-10T11:04:34;19.80;;;4.57;;
7729;SDS011;3908;52.310;7.230;2023-01-10T11:07:22;21.73;;;3.93;;
7729;SDS011;3908;52.310;7.230;2023-01-10T11:10:12;13.40;;;4.23;;
7729;SDS011;3908;52.310;7.230;2023-01-10T11:13:29;21.00;;;4.30;;
7729;SDS011;3908;52.310;7.230;2023-01-10T11:16:29;24.20;;;4.73;;
7729;SDS011;3908;52.310;7.230;2023-01-10T11:19:18;16.73;;;5.17;;
7729;SDS011;3908;52.310;7.230;2023-01-10T11:22:06;15.07;;;4.23;;
7729;SDS011;3908;52.310;7.230;2023-01-10T11:24:54;22.23;;;4.10;;
7729;SDS011;3908;52.310;7.230;2023-01-10T11:27:45;16.93;;;4.27;;
7729;SDS011;3908;52.310;7.230;2023-01-10T11:30:34;23.80;;;4.63;;
7729;SDS011;3908;52.310;7.230;2023-01-10T11:33:24;19.20;;;5.03;;
7729;SDS011;3908;52.310;7.230;2023-01-10T11:36:13;19.63;;;4.70;;
7729;SDS011;3908;52.310;7.230;2023-01-10T11:39:01;18.67;;;4.83;;
7729;SDS011;3908;52.310;7.230;2023-01-10T11:41:49;22.13;;;5.03;;
7729;SDS011;3908;52.310;7.230;2023-01-10T11:44:37;25.67;;;5.00;;
7729;SDS011;3908;52.310;7.230;2023-01-10T11:47:24;14.53;;;3.77;;
7729;SDS011;3908;52.310;7.230;2023-01-10T11:50:15;19.13;;;5.33;;
7729;SDS011;3908;52.310;7.230;2023-01-10T11:53:05;19.13;;;4.37;;
7729;SDS011;3908;52.310;7.230;2023-01-10T11:56:08;18.47;;;4.53;;
7729;SDS011;3908;52.310;7.230;2023-01-10T11:59:06;20.43;;;4.67;;
7729;SDS011;3908;52.310;7.230;2023-01-10T12:01:58;11.87;;;4.33;;
7729;SDS011;3908;52.310;7.230;2023-01-10T12:04:46;19.53;;;5.30;;
7729;SDS011;3908;52.310;7.230;2023-01-10T12:07:54;22.07;;;4.47;;
7729;SDS011;3908;52.310;7.230;2023-01-10T12:10:41;20.33;;;4.33;;
7729;SDS011;3908;52.310;7.230;2023-01-10T12:13:44;18.67;;;5.17;;
7729;SDS011;3908;52.310;7.230;2023-01-10T12:16:33;18.27;;;4.70;;
7729;SDS011;3908;52.310;7.230;2023-01-10T12:19:20;24.60;;;5.83;;
7729;SDS011;3908;52.310;7.230;2023-01-10T12:22:08;22.07;;;5.93;;
7729;SDS011;3908;52.310;7.230;2023-01-10T12:25:02;21.17;;;6.47;;
7729;SDS011;3908;52.310;7.230;2023-01-10T12:27:54;21.53;;;5.77;;
7729;SDS011;3908;52.310;7.230;2023-01-10T12:30:44;19.60;;;5.53;;
7729;SDS011;3908;52.310;7.230;2023-01-10T12:33:35;19.90;;;5.80;;
7729;SDS011;3908;52.310;7.230;2023-01-10T12:36:29;20.63;;;5.33;;
7729;SDS011;3908;52.310;7.230;2023-01-10T12:39:23;28.73;;;6.60;;
7729;SDS011;3908;52.310;7.230;2023-01-10T12:42:18;18.47;;;6.60;;
7729;SDS011;3908;52.310;7.230;2023-01-10T12:45:32;21.23;;;5.60;;
7729;SDS011;3908;52.310;7.230;2023-01-10T12:48:26;15.17;;;6.20;;
7729;SDS011;3908;52.310;7.230;2023-01-10T12:51:22;24.27;;;6.00;;
7729;SDS011;3908;52.310;7.230;2023-01-10T12:54:14;19.43;;;5.53;;
7729;SDS011;3908;52.310;7.230;2023-01-10T12:57:18;23.30;;;5.80;;
7729;SDS011;3908;52.310;7.230;2023-01-10T13:00:14;16.83;;;5.57;;
7729;SDS011;3908;52.310;7.230;2023-01-10T13:03:09;17.93;;;4.93;;
7729;SDS011;3908;52.310;7.230;2023-01-10T13:05:58;18.33;;;5.33;;
7729;SDS011;3908;52.310;7.230;2023-01-10T13:08:46;26.20;;;5.77;;
7729;SDS011;3908;52.310;7.230;2023-01-10T13:11:36;14.00;;;5.80;;
7729;SDS011;3908;52.310;7.230;2023-01-10T13:14:29;17.57;;;5.00;;
7729;SDS011;3908;52.310;7.230;2023-01-10T13:17:33;20.37;;;4.87;;
7729;SDS011;3908;52.310;7.230;2023-01-10T13:20:25;21.33;;;4.27;;
7729;SDS011;3908;52.310;7.230;2023-01-10T13:23:22;19.80;;;4.57;;
7729;SDS011;3908;52.310;7.230;2023-01-10T13:26:14;13.13;;;3.97;;
7729;SDS011;3908;52.310;7.230;2023-01-10T13:29:01;12.13;;;3.90;;
7729;SDS011;3908;52.310;7.230;2023-01-10T13:31:50;15.90;;;3.83;;
7729;SDS011;3908;52.310;7.230;2023-01-10T13:34:41;14.47;;;3.70;;
7729;SDS011;3908;52.310;7.230;2023-01-10T13:37:29;13.17;;;4.43;;
7729;SDS011;3908;52.310;7.230;2023-01-10T13:40:21;18.10;;;3.87;;
7729;SDS011;3908;52.310;7.230;2023-01-10T13:43:29;20.20;;;3.83;;
7729;SDS011;3908;52.310;7.230;2023-01-10T13:46:33;14.80;;;3.30;;
7729;SDS011;3908;52.310;7.230;2023-01-10T13:52:35;20.40;;;3.37;;
7729;SDS011;3908;52.310;7.230;2023-01-10T13:55:26;16.97;;;4.47;;
7729;SDS011;3908;52.310;7.230;2023-01-10T14:01:48;16.37;;;3.43;;
7729;SDS011;3908;52.310;7.230;2023-01-10T14:04:56;18.10;;;3.90;;
7729;SDS011;3908;52.310;7.230;2023-01-10T14:07:46;18.47;;;4.23;;
7729;SDS011;3908;52.310;7.230;2023-01-10T14:10:34;17.53;;;3.67;;
7729;SDS011;3908;52.310;7.230;2023-01-10T14:13:21;17.73;;;3.73;;
7729;SDS011;3908;52.310;7.230;2023-01-10T14:19:20;17.37;;;3.40;;
7729;SDS011;3908;52.310;7.230;2023-01-10T14:22:22;13.17;;;3.67;;
7729;SDS011;3908;52.310;7.230;2023-01-10T14:25:15;21.37;;;4.03;;
7729;SDS011;3908;52.310;7.230;2023-01-10T14:28:04;12.10;;;3.30;;
7729;SDS011;3908;52.310;7.230;2023-01-10T14:31:05;23.43;;;4.37;;
7729;SDS011;3908;52.310;7.230;2023-01-10T14:33:54;17.30;;;3.77;;
7729;SDS011;3908;52.310;7.230;2023-01-10T14:36:46;17.27;;;3.93;;
7729;SDS011;3908;52.310;7.230;2023-01-10T14:39:40;15.47;;;4.23;;
7729;SDS011;3908;52.310;7.230;2023-01-10T14:42:29;14.63;;;4.57;;
7729;SDS011;3908;52.310;7.230;2023-01-10T14:45:18;15.60;;;4.07;;
7729;SDS011;3908;52.310;7.230;2023-01-10T14:48:21;19.27;;;3.60;;
7729;SDS011;3908;52.310;7.230;2023-01-10T14:51:19;18.80;;;4.20;;
7729;SDS011;3908;52.310;7.230;2023-01-10T14:54:10;17.50;;;4.10;;
7729;SDS011;3908;52.310;7.230;2023-01-10T14:57:00;16.10;;;3.77;;
7729;SDS011;3908;52.310;7.230;2023-01-10T14:59:47;18.20;;;4.60;;
7729;SDS011;3908;52.310;7.230;2023-01-10T15:05:15;13.33;;;4.17;;
7729;SDS011;3908;52.310;7.230;2023-01-10T15:08:14;10.17;;;3.43;;
7729;SDS011;3908;52.310;7.230;2023-01-10T15:11:03;14.40;;;3.37;;
7729;SDS011;3908;52.310;7.230;2023-01-10T15:13:55;17.53;;;3.63;;
7729;SDS011;3908;52.310;7.230;2023-01-10T15:16:48;18.27;;;3.50;;
7729;SDS011;3908;52.310;7.230;2023-01-10T15:19:37;14.07;;;2.90;;
7729;SDS011;3908;52.310;7.230;2023-01-10T15:22:26;12.93;;;3.10;;
7729;SDS011;3908;52.310;7.230;2023-01-10T15:25:24;14.00;;;3.97;;
7729;SDS011;3908;52.310;7.230;2023-01-10T15:28:15;14.80;;;3.70;;
7729;SDS011;3908;52.310;7.230;2023-01-10T15:31:05;15.07;;;3.13;;
7729;SDS011;3908;52.310;7.230;2023-01-10T15:33:55;16.40;;;3.13;;
7729;SDS011;3908;52.310;7.230;2023-01-10T15:36:44;9.57;;;2.97;;
7729;SDS011;3908;52.310;7.230;2023-01-10T15:39:35;17.00;;;3.97;;
7729;SDS011;3908;52.310;7.230;2023-01-10T15:42:25;14.13;;;3.20;;
7729;SDS011;3908;52.310;7.230;2023-01-10T15:45:16;17.43;;;4.17;;
7729;SDS011;3908;52.310;7.230;2023-01-10T15:51:11;14.07;;;2.93;;
7729;SDS011;3908;52.310;7.230;2023-01-10T15:54:00;14.00;;;2.80;;
7729;SDS011;3908;52.310;7.230;2023-01-10T15:56:51;18.50;;;3.27;;
7729;SDS011;3908;52.310;7.230;2023-01-10T15:59:45;15.10;;;3.20;;
7729;SDS011;3908;52.310;7.230;2023-01-10T16:02:34;17.10;;;3.60;;
7729;SDS011;3908;52.310;7.230;2023-01-10T16:05:22;17.50;;;3.57;;
7729;SDS011;3908;52.310;7.230;2023-01-10T16:08:10;15.40;;;4.10;;
7729;SDS011;3908;52.310;7.230;2023-01-10T16:10:58;9.47;;;2.63;;
7729;SDS011;3908;52.310;7.230;2023-01-10T16:13:46;11.23;;;2.63;;
7729;SDS011;3908;52.310;7.230;2023-01-10T16:16:32;17.30;;;3.53;;
7729;SDS011;3908;52.310;7.230;2023-01-10T16:19:20;16.23;;;3.37;;
7729;SDS011;3908;52.310;7.230;2023-01-10T16:22:09;12.57;;;2.70;;
7729;SDS011;3908;52.310;7.230;2023-01-10T16:25:04;12.60;;;3.20;;
7729;SDS011;3908;52.310;7.230;2023-01-10T16:27:52;11.47;;;2.50;;
7729;SDS011;3908;52.310;7.230;2023-01-10T16:30:40;11.50;;;2.90;;
7729;SDS011;3908;52.310;7.230;2023-01-10T16:33:31;9.03;;;2.43;;
7729;SDS011;3908;52.310;7.230;2023-01-10T16:36:18;16.70;;;3.43;;
7729;SDS011;3908;52.310;7.230;2023-01-10T16:39:06;13.00;;;3.20;;
7729;SDS011;3908;52.310;7.230;2023-01-10T16:41:59;10.17;;;3.10;;
7729;SDS011;3908;52.310;7.230;2023-01-10T16:45:04;12.13;;;2.87;;
7729;SDS011;3908;52.310;7.230;2023-01-10T16:47:52;12.83;;;2.77;;
7729;SDS011;3908;52.310;7.230;2023-01-10T16:50:40;12.63;;;3.10;;
7729;SDS011;3908;52.310;7.230;2023-01-10T16:53:27;13.93;;;2.97;;
7729;SDS011;3908;52.310;7.230;2023-01-10T16:56:15;16.23;;;2.97;;
7729;SDS011;3908;52.310;7.230;2023-01-10T16:59:04;15.23;;;2.87;;
7729;SDS011;3908;52.310;7.230;2023-01-10T17:01:52;8.70;;;2.57;;
7729;SDS011;3908;52.310;7.230;2023-01-10T17:04:42;14.27;;;2.80;;
7729;SDS011;3908;52.310;7.230;2023-01-10T17:07:29;14.93;;;2.57;;
7729;SDS011;3908;52.310;7.230;2023-01-10T17:10:16;11.50;;;2.43;;
7729;SDS011;3908;52.310;7.230;2023-01-10T17:20:31;12.73;;;2.77;;
7729;SDS011;3908;52.310;7.230;2023-01-10T17:23:18;16.23;;;2.77;;
7729;SDS011;3908;52.310;7.230;2023-01-10T17:26:05;7.30;;;2.43;;
7729;SDS011;3908;52.310;7.230;2023-01-10T17:28:52;17.23;;;2.80;;
7729;SDS011;3908;52.310;7.230;2023-01-10T17:31:40;11.93;;;2.97;;
7729;SDS011;3908;52.310;7.230;2023-01-10T17:34:27;12.30;;;3.23;;
7729;SDS011;3908;52.310;7.230;2023-01-10T17:37:17;12.17;;;3.57;;
7729;SDS011;3908;52.310;7.230;2023-01-10T17:40:04;17.30;;;3.00;;
7729;SDS011;3908;52.310;7.230;2023-01-10T17:42:51;13.73;;;3.00;;
7729;SDS011;3908;52.310;7.230;2023-01-10T17:45:38;12.97;;;2.83;;
7729;SDS011;3908;52.310;7.230;2023-01-10T17:48:26;16.90;;;2.67;;
7729;SDS011;3908;52.310;7.230;2023-01-10T17:51:13;11.07;;;3.10;;
7729;SDS011;3908;52.310;7.230;2023-01-10T17:54:03;7.60;;;2.63;;
7729;SDS011;3908;52.310;7.230;2023-01-10T17:56:50;14.80;;;3.10;;
7729;SDS011;3908;52.310;7.230;2023-01-10T17:59:37;14.30;;;3.47;;